createdAt,value
2019-05-01T00:00:22.778Z,15.60
2019-05-01T00:03:06.805Z,13.98
2019-05-01T00:05:49.040Z,12.73
2019-05-01T00:08:18.026Z,12.55
2019-05-01T00:10:46.640Z,11.70
2019-05-01T00:13:16.294Z,11.13
2019-05-01T00:15:45.310Z,11.10
2019-05-01T00:18:14.001Z,9.60
2019-05-01T00:20:42.616Z,9.85
2019-05-01T00:23:11.221Z,8.75
2019-05-01T00:25:39.754Z,8.95
2019-05-01T00:28:08.703Z,8.80
2019-05-01T00:30:37.523Z,8.70
2019-05-01T00:33:07.163Z,8.60
2019-05-01T00:35:35.774Z,7.95
2019-05-01T00:38:04.385Z,8.40
2019-05-01T00:40:33.164Z,8.33
2019-05-01T00:43:01.927Z,7.83
2019-05-01T00:45:30.488Z,7.47
2019-05-01T00:47:59.058Z,7.83
2019-05-01T00:50:27.763Z,6.78
2019-05-01T00:52:56.376Z,7.12
2019-05-01T00:55:29.046Z,7.00
2019-05-01T00:58:15.748Z,7.50
2019-05-01T01:01:02.543Z,6.80
2019-05-01T01:03:31.266Z,6.53
2019-05-01T01:06:00.083Z,7.33
2019-05-01T01:08:28.618Z,7.12
2019-05-01T01:10:57.283Z,7.22
2019-05-01T01:13:25.834Z,7.27
2019-05-01T01:15:54.455Z,7.30
2019-05-01T01:18:23.030Z,7.05
2019-05-01T01:20:51.619Z,6.72
2019-05-01T01:23:20.224Z,7.30
2019-05-01T01:25:48.876Z,6.80
2019-05-01T01:28:17.779Z,6.57
2019-05-01T01:30:56.170Z,6.50
2019-05-01T01:33:16.715Z,6.58
2019-05-01T01:35:45.323Z,7.28
2019-05-01T01:38:14.696Z,6.95
2019-05-01T01:40:43.623Z,6.97
2019-05-01T01:43:30.387Z,6.90
2019-05-01T01:46:03.504Z,7.77
2019-05-01T01:48:32.232Z,7.40
2019-05-01T01:51:00.943Z,7.08
2019-05-01T01:53:29.691Z,7.05
2019-05-01T01:55:58.383Z,7.35
2019-05-01T01:58:27.029Z,7.40
2019-05-01T02:01:14.073Z,7.63
2019-05-01T02:03:44.273Z,6.78
2019-05-01T02:06:12.953Z,6.65
2019-05-01T02:08:41.639Z,7.27
2019-05-01T02:11:10.250Z,6.42
2019-05-01T02:13:38.960Z,6.53
2019-05-01T02:16:07.569Z,6.50
2019-05-01T02:18:36.301Z,6.53
2019-05-01T02:21:05.388Z,7.20
2019-05-01T02:23:33.934Z,6.83
2019-05-01T02:26:02.924Z,6.90
2019-05-01T02:28:33.567Z,6.27
2019-05-01T02:31:27.374Z,6.28
2019-05-01T02:33:47.701Z,6.45
2019-05-01T02:36:18.976Z,6.10
2019-05-01T02:38:49.911Z,6.47
2019-05-01T02:41:20.406Z,6.90
2019-05-01T02:43:52.164Z,6.30
2019-05-01T02:46:22.966Z,6.20
2019-05-01T02:49:13.728Z,5.67
2019-05-01T02:51:43.907Z,6.23
2019-05-01T02:54:14.199Z,5.78
2019-05-01T02:56:47.274Z,6.08
2019-05-01T02:59:16.148Z,5.97
2019-05-01T03:01:47.604Z,6.12
2019-05-01T03:04:16.062Z,5.87
2019-05-01T03:06:46.292Z,5.70
2019-05-01T03:09:16.155Z,5.95
2019-05-01T03:11:47.204Z,5.70
2019-05-01T03:14:18.769Z,5.80
2019-05-01T03:16:49.284Z,5.42
2019-05-01T03:19:20.733Z,5.90
2019-05-01T03:21:54.668Z,5.70
2019-05-01T03:24:27.726Z,5.97
2019-05-01T03:26:56.647Z,6.50
2019-05-01T03:29:25.646Z,6.05
2019-05-01T03:32:15.527Z,5.35
2019-05-01T03:34:24.841Z,6.12
2019-05-01T03:36:53.520Z,6.57
2019-05-01T03:39:22.851Z,6.45
2019-05-01T03:41:51.406Z,6.08
2019-05-01T03:44:20.593Z,5.73
2019-05-01T03:46:49.381Z,5.53
2019-05-01T03:49:17.907Z,6.12
2019-05-01T03:51:46.528Z,5.43
2019-05-01T03:54:15.551Z,5.90
2019-05-01T03:56:44.258Z,5.90
2019-05-01T03:59:12.815Z,6.40
2019-05-01T04:01:49.230Z,6.10
2019-05-01T04:04:19.478Z,5.50
2019-05-01T04:06:48.273Z,5.90
2019-05-01T04:09:17.302Z,6.13
2019-05-01T04:11:45.927Z,5.80
2019-05-01T04:14:14.762Z,5.47
2019-05-01T04:16:45.115Z,6.10
2019-05-01T04:19:14.376Z,5.60
2019-05-01T04:21:44.630Z,5.85
2019-05-01T04:24:13.286Z,6.03
2019-05-01T04:26:41.930Z,6.10
2019-05-01T04:29:14.895Z,5.65
2019-05-01T04:31:45.467Z,5.90
2019-05-01T04:34:33.966Z,5.87
2019-05-01T04:37:10.119Z,5.83
2019-05-01T04:39:38.753Z,6.15
2019-05-01T04:42:07.438Z,5.70
2019-05-01T04:44:36.153Z,5.97
2019-05-01T04:47:06.000Z,5.80
2019-05-01T04:49:34.568Z,5.67
2019-05-01T04:52:03.285Z,5.77
2019-05-01T04:54:31.866Z,5.77
2019-05-01T04:57:00.954Z,5.65
2019-05-01T04:59:29.630Z,5.72
2019-05-01T05:02:02.677Z,6.30
2019-05-01T05:04:31.563Z,5.30
2019-05-01T05:07:01.702Z,5.90
2019-05-01T05:12:33.186Z,6.00
2019-05-01T05:15:03.870Z,5.90
2019-05-01T05:17:32.606Z,6.30
2019-05-01T05:20:01.449Z,6.03
2019-05-01T05:22:30.904Z,6.07
2019-05-01T05:24:59.994Z,5.83
2019-05-01T05:27:29.816Z,5.78
2019-05-01T05:29:58.449Z,5.42
2019-05-01T05:32:29.109Z,6.17
2019-05-01T05:34:59.396Z,5.40
2019-05-01T05:37:31.401Z,5.67
2019-05-01T05:40:02.023Z,5.50
2019-05-01T05:42:31.218Z,5.63
2019-05-01T05:44:59.827Z,6.10
2019-05-01T05:47:30.209Z,6.10
2019-05-01T05:50:00.016Z,5.62
2019-05-01T05:52:31.778Z,6.10
2019-05-01T05:55:10.828Z,6.12
2019-05-01T05:57:44.146Z,5.95
2019-05-01T06:00:14.525Z,5.70
2019-05-01T06:03:04.788Z,6.20
2019-05-01T06:05:42.986Z,6.28
2019-05-01T06:08:18.448Z,6.35
2019-05-01T06:10:53.688Z,7.08
2019-05-01T06:13:25.717Z,6.75
2019-05-01T06:16:16.377Z,6.12
2019-05-01T06:18:47.444Z,6.75
2019-05-01T06:21:20.851Z,7.00
2019-05-01T06:23:52.685Z,7.08
2019-05-01T06:26:37.251Z,6.10
2019-05-01T06:29:04.983Z,7.20
2019-05-01T06:31:33.996Z,6.95
2019-05-01T06:34:02.828Z,7.40
2019-05-01T06:36:32.042Z,6.73
2019-05-01T06:39:01.470Z,6.80
2019-05-01T06:41:33.810Z,7.08
2019-05-01T06:44:04.139Z,6.67
2019-05-01T06:46:48.047Z,6.27
2019-05-01T06:49:19.268Z,6.37
2019-05-01T06:51:53.156Z,6.05
2019-05-01T06:54:21.383Z,6.17
2019-05-01T06:56:51.845Z,6.45
2019-05-01T06:59:26.178Z,6.58
2019-05-01T07:01:58.309Z,5.87
2019-05-01T07:04:24.109Z,6.35
2019-05-01T07:06:53.098Z,6.78
2019-05-01T07:09:28.153Z,6.72
2019-05-01T07:11:54.593Z,6.53
2019-05-01T07:14:23.543Z,6.33
2019-05-01T07:16:52.225Z,5.87
2019-05-01T07:19:22.550Z,5.72
2019-05-01T07:21:51.248Z,6.03
2019-05-01T07:24:24.101Z,5.92
2019-05-01T07:26:50.499Z,5.78
2019-05-01T07:29:32.685Z,6.10
2019-05-01T07:32:01.652Z,6.55
2019-05-01T07:34:30.566Z,6.20
2019-05-01T07:36:59.869Z,6.05
2019-05-01T07:39:28.731Z,5.90
2019-05-01T07:41:59.072Z,6.42
2019-05-01T07:44:33.801Z,6.67
2019-05-01T07:47:07.179Z,5.50
2019-05-01T07:49:47.846Z,6.47
2019-05-01T07:52:17.168Z,5.55
2019-05-01T07:54:47.811Z,6.03
2019-05-01T07:57:17.587Z,6.00
2019-05-01T07:59:47.359Z,6.22
2019-05-01T08:02:16.658Z,5.87
2019-05-01T08:04:45.478Z,5.95
2019-05-01T08:07:14.058Z,6.22
2019-05-01T08:09:45.845Z,6.53
2019-05-01T08:12:14.465Z,6.78
2019-05-01T08:14:43.233Z,6.58
2019-05-01T08:17:17.690Z,6.67
2019-05-01T08:19:47.781Z,6.65
2019-05-01T08:22:18.042Z,6.50
2019-05-01T08:24:46.770Z,6.37
2019-05-01T08:27:22.584Z,6.83
2019-05-01T08:29:52.743Z,6.67
2019-05-01T08:32:25.695Z,6.30
2019-05-01T08:35:00.612Z,6.80
2019-05-01T08:37:27.220Z,6.10
2019-05-01T08:39:55.888Z,7.33
2019-05-01T08:42:24.449Z,6.30
2019-05-01T08:45:05.288Z,6.20
2019-05-01T08:47:38.352Z,5.80
2019-05-01T08:50:19.829Z,6.03
2019-05-01T08:52:47.348Z,5.65
2019-05-01T08:55:17.561Z,6.00
2019-05-01T08:57:46.131Z,5.75
2019-05-01T09:00:15.024Z,6.03
2019-05-01T09:02:44.379Z,5.05
2019-05-01T09:05:27.742Z,4.75
2019-05-01T09:07:43.608Z,4.50
2019-05-01T09:10:12.490Z,4.67
2019-05-01T09:12:42.520Z,4.57
2019-05-01T09:15:12.780Z,4.08
2019-05-01T09:17:41.546Z,4.35
2019-05-01T09:20:10.554Z,3.65
2019-05-01T09:22:39.103Z,4.50
2019-05-01T09:25:09.270Z,4.67
2019-05-01T09:27:39.813Z,3.95
2019-05-01T09:30:11.078Z,4.10
2019-05-01T09:32:39.731Z,4.10
2019-05-01T09:35:15.889Z,4.62
2019-05-01T09:37:39.716Z,4.58
2019-05-01T09:40:27.722Z,4.67
2019-05-01T09:42:59.481Z,4.57
2019-05-01T09:45:26.615Z,4.40
2019-05-01T09:47:55.263Z,4.17
2019-05-01T09:50:25.791Z,4.60
2019-05-01T09:52:59.829Z,4.12
2019-05-01T09:55:38.072Z,4.28
2019-05-01T09:58:06.749Z,4.53
2019-05-01T10:00:35.381Z,4.33
2019-05-01T10:03:03.983Z,4.15
2019-05-01T10:05:38.101Z,4.37
2019-05-01T10:08:05.430Z,4.92
2019-05-01T10:10:36.956Z,4.40
2019-05-01T10:13:05.149Z,4.20
2019-05-01T10:15:33.756Z,4.58
2019-05-01T10:18:02.354Z,3.90
2019-05-01T10:20:30.934Z,3.62
2019-05-01T10:22:59.711Z,4.07
2019-05-01T10:25:28.266Z,4.15
2019-05-01T10:30:56.997Z,4.00
2019-05-01T10:33:32.685Z,4.28
2019-05-01T10:36:18.961Z,4.10
2019-05-01T10:38:45.001Z,4.28
2019-05-01T10:41:14.650Z,4.05
2019-05-01T10:43:43.299Z,4.40
2019-05-01T10:46:11.928Z,5.10
2019-05-01T10:48:40.491Z,4.65
2019-05-01T10:51:10.907Z,4.58
2019-05-01T10:53:39.491Z,4.37
2019-05-01T10:56:08.056Z,4.60
2019-05-01T10:58:36.733Z,4.40
2019-05-01T11:01:09.833Z,4.53
2019-05-01T11:03:38.519Z,4.50
2019-05-01T11:06:07.285Z,4.07
2019-05-01T11:08:35.853Z,4.15
2019-05-01T11:11:05.357Z,3.87
2019-05-01T11:13:34.083Z,4.33
2019-05-01T11:16:02.787Z,3.80
2019-05-01T11:18:31.308Z,4.17
2019-05-01T11:20:59.852Z,3.67
2019-05-01T11:23:28.407Z,3.40
2019-05-01T11:25:57.034Z,3.37
2019-05-01T11:28:25.623Z,3.33
2019-05-01T11:30:54.273Z,3.70
2019-05-01T11:33:27.478Z,3.77
2019-05-01T11:36:09.703Z,3.67
2019-05-01T11:38:50.671Z,3.35
2019-05-01T11:41:29.636Z,3.30
2019-05-01T11:43:58.393Z,3.22
2019-05-01T11:46:27.060Z,3.40
2019-05-01T11:48:55.695Z,3.50
2019-05-01T11:51:24.294Z,3.36
2019-05-01T11:53:52.874Z,2.92
2019-05-01T11:56:21.465Z,3.10
2019-05-01T11:58:50.013Z,2.90
2019-05-01T12:01:20.208Z,3.02
2019-05-01T12:03:48.798Z,3.75
2019-05-01T12:06:22.968Z,3.35
2019-05-01T12:08:47.480Z,4.00
2019-05-01T12:11:17.706Z,4.05
2019-05-01T12:13:46.328Z,3.43
2019-05-01T12:16:33.671Z,2.95
2019-05-01T12:19:02.219Z,3.52
2019-05-01T12:21:30.755Z,3.02
2019-05-01T12:23:59.324Z,2.70
2019-05-01T12:26:27.903Z,2.87
2019-05-01T12:28:57.239Z,2.80
2019-05-01T12:31:25.789Z,2.75
2019-05-01T12:33:54.386Z,2.72
2019-05-01T12:36:35.432Z,2.83
2019-05-01T12:38:53.147Z,2.92
2019-05-01T12:41:23.312Z,3.00
2019-05-01T12:43:51.874Z,2.85
2019-05-01T12:46:40.193Z,3.12
2019-05-01T12:49:08.851Z,2.75
2019-05-01T12:51:38.467Z,2.80
2019-05-01T12:54:11.744Z,3.12
2019-05-01T12:59:37.706Z,3.08
2019-05-01T13:02:06.274Z,2.62
2019-05-01T13:04:34.917Z,3.08
2019-05-01T13:07:03.767Z,3.20
2019-05-01T13:09:32.311Z,3.10
2019-05-01T13:12:00.985Z,3.58
2019-05-01T13:14:29.537Z,3.42
2019-05-01T13:16:58.165Z,4.20
2019-05-01T13:19:27.545Z,3.75
2019-05-01T13:21:56.094Z,3.60
2019-05-01T13:24:24.639Z,3.55
2019-05-01T13:26:54.906Z,3.80
2019-05-01T13:29:27.811Z,4.08
2019-05-01T13:32:08.035Z,3.90
2019-05-01T13:34:36.632Z,3.50
2019-05-01T13:37:05.259Z,4.40
2019-05-01T13:39:33.806Z,3.72
2019-05-01T13:42:02.390Z,3.83
2019-05-01T13:44:30.984Z,4.45
2019-05-01T13:46:59.617Z,5.03
2019-05-01T13:49:28.211Z,5.08
2019-05-01T13:51:57.677Z,5.85
2019-05-01T13:54:26.226Z,5.62
2019-05-01T13:56:54.842Z,5.53
2019-05-01T13:59:24.226Z,5.78
2019-05-01T14:01:52.851Z,5.25
2019-05-01T14:04:21.799Z,5.75
2019-05-01T14:06:50.330Z,6.10
2019-05-01T14:09:23.237Z,6.17
2019-05-01T14:11:51.837Z,6.87
2019-05-01T14:14:20.477Z,6.25
2019-05-01T14:16:52.031Z,5.53
2019-05-01T14:19:20.613Z,6.47
2019-05-01T14:21:57.384Z,6.12
2019-05-01T14:24:27.569Z,6.62
2019-05-01T14:26:56.218Z,6.73
2019-05-01T14:29:24.726Z,7.50
2019-05-01T14:31:54.322Z,6.60
2019-05-01T14:34:23.010Z,6.90
2019-05-01T14:36:51.652Z,9.50
2019-05-01T14:39:20.266Z,8.00
2019-05-01T14:41:48.861Z,6.72
2019-05-01T14:44:17.411Z,6.70
2019-05-01T14:46:46.037Z,6.47
2019-05-01T14:49:14.697Z,7.35
2019-05-01T14:51:43.346Z,7.45
2019-05-01T14:54:11.860Z,7.78
2019-05-01T14:56:43.259Z,7.65
2019-05-01T14:59:10.787Z,7.03
2019-05-01T15:01:39.356Z,7.60
2019-05-01T15:04:08.034Z,10.95
2019-05-01T15:06:36.614Z,11.00
2019-05-01T15:09:07.750Z,11.05
2019-05-01T15:11:37.284Z,10.88
2019-05-01T15:14:07.648Z,11.33
2019-05-01T15:16:40.432Z,13.28
2019-05-01T15:19:16.484Z,12.85
2019-05-01T15:21:45.225Z,11.80
2019-05-01T15:24:13.768Z,14.23
2019-05-01T15:26:43.093Z,14.07
2019-05-01T15:29:11.676Z,13.93
2019-05-01T15:31:40.312Z,13.98
2019-05-01T15:34:09.071Z,17.70
2019-05-01T15:36:37.669Z,18.98
2019-05-01T15:39:11.318Z,17.60
2019-05-01T15:41:50.968Z,15.25
2019-05-01T15:44:21.345Z,14.70
2019-05-01T15:46:50.277Z,17.10
2019-05-01T15:49:18.869Z,18.00
2019-05-01T15:51:47.428Z,20.25
2019-05-01T15:54:16.011Z,21.12
2019-05-01T15:56:44.702Z,20.20
2019-05-01T15:59:13.255Z,18.57
2019-05-01T16:01:41.823Z,19.87
2019-05-01T16:04:10.472Z,31.40
2019-05-01T16:06:39.058Z,28.77
2019-05-01T16:09:08.265Z,22.73
2019-05-01T16:11:41.560Z,21.93
2019-05-01T16:14:10.108Z,22.87
2019-05-01T16:16:38.673Z,21.15
2019-05-01T16:19:07.333Z,22.95
2019-05-01T16:21:35.901Z,23.22
2019-05-01T16:24:04.723Z,22.05
2019-05-01T16:26:33.330Z,23.25
2019-05-01T16:29:02.049Z,21.40
2019-05-01T16:31:30.723Z,22.40
2019-05-01T16:33:59.334Z,22.47
2019-05-01T16:36:27.956Z,21.80
2019-05-01T16:39:04.669Z,21.74
2019-05-01T16:41:33.331Z,21.93
2019-05-01T16:44:02.301Z,22.00
2019-05-01T16:46:30.891Z,21.75
2019-05-01T16:48:59.483Z,22.17
2019-05-01T16:51:28.068Z,21.37
2019-05-01T16:53:56.645Z,21.35
2019-05-01T16:56:25.253Z,21.57
2019-05-01T16:58:53.895Z,20.70
2019-05-01T17:01:24.165Z,21.48
2019-05-01T17:03:56.863Z,20.25
2019-05-01T17:06:33.747Z,21.68
2019-05-01T17:09:20.047Z,21.17
2019-05-01T17:11:49.021Z,21.87
2019-05-01T17:14:18.597Z,20.97
2019-05-01T17:16:47.406Z,21.13
2019-05-01T17:19:16.067Z,44.83
2019-05-01T17:21:45.589Z,66.00
2019-05-01T17:24:14.320Z,47.10
2019-05-01T17:26:42.977Z,25.97
2019-05-01T17:29:11.547Z,43.48
2019-05-01T17:31:40.378Z,26.68
2019-05-01T17:34:09.810Z,38.53
2019-05-01T17:36:38.992Z,47.90
2019-05-01T17:39:07.897Z,54.85
2019-05-01T17:41:36.759Z,29.87
2019-05-01T17:44:05.469Z,27.70
2019-05-01T17:46:34.154Z,21.42
2019-05-01T17:49:04.066Z,16.37
2019-05-01T17:51:32.946Z,17.03
2019-05-01T17:54:01.592Z,16.55
2019-05-01T17:56:30.182Z,15.38
2019-05-01T17:58:58.832Z,18.75
2019-05-01T18:01:44.917Z,18.27
2019-05-01T18:04:15.194Z,21.75
2019-05-01T18:06:46.673Z,59.03
2019-05-01T18:09:17.984Z,67.00
2019-05-01T18:11:47.258Z,64.47
2019-05-01T18:14:16.958Z,24.37
2019-05-01T18:16:45.743Z,19.98
2019-05-01T18:19:14.637Z,20.52
2019-05-01T18:21:46.868Z,20.40
2019-05-01T18:24:34.462Z,20.08
2019-05-01T18:27:21.237Z,19.50
2019-05-01T18:29:55.096Z,19.65
2019-05-01T18:32:25.147Z,21.52
2019-05-01T18:34:57.015Z,20.17
2019-05-01T18:37:35.166Z,22.20
2019-05-01T18:40:08.430Z,21.20
2019-05-01T18:42:37.089Z,21.25
2019-05-01T18:45:12.152Z,21.67
2019-05-01T18:47:40.846Z,21.95
2019-05-01T18:50:13.521Z,22.60
2019-05-01T18:52:41.847Z,20.82
2019-05-01T18:55:11.460Z,22.05
2019-05-01T18:57:40.022Z,20.75
2019-05-01T19:00:08.899Z,22.05
2019-05-01T19:02:38.992Z,22.25
2019-05-01T19:05:08.759Z,22.32
2019-05-01T19:07:38.121Z,22.60
2019-05-01T19:10:07.148Z,22.87
2019-05-01T19:12:35.716Z,24.53
2019-05-01T19:15:06.761Z,22.85
2019-05-01T19:17:37.134Z,24.12
2019-05-01T19:20:11.535Z,25.15
2019-05-01T19:22:40.340Z,24.18
2019-05-01T19:25:11.097Z,24.40
2019-05-01T19:27:39.326Z,22.77
2019-05-01T19:30:09.715Z,24.02
2019-05-01T19:32:38.921Z,26.17
2019-05-01T19:35:07.728Z,24.07
2019-05-01T19:37:36.371Z,25.35
2019-05-01T19:40:06.244Z,25.17
2019-05-01T19:42:34.863Z,25.10
2019-05-01T19:45:04.337Z,25.68
2019-05-01T19:47:34.582Z,25.08
2019-05-01T19:50:07.577Z,26.27
2019-05-01T19:52:38.004Z,25.75
2019-05-01T19:55:07.776Z,25.72
2019-05-01T19:57:36.489Z,25.97
2019-05-01T20:00:07.451Z,26.20
2019-05-01T20:02:36.189Z,25.80
2019-05-01T20:05:10.989Z,26.68
2019-05-01T20:07:38.683Z,27.02
2019-05-01T20:10:08.764Z,27.15
2019-05-01T20:12:37.327Z,24.90
2019-05-01T20:15:06.870Z,26.17
2019-05-01T20:17:35.718Z,27.10
2019-05-01T20:20:06.390Z,26.65
2019-05-01T20:22:35.274Z,26.66
2019-05-01T20:25:04.888Z,27.32
2019-05-01T20:27:33.466Z,25.45
2019-05-01T20:30:02.458Z,26.20
2019-05-01T20:32:31.100Z,25.70
2019-05-01T20:34:59.842Z,26.68
2019-05-01T20:37:28.522Z,26.27
2019-05-01T20:40:09.785Z,25.55
2019-05-01T20:42:27.351Z,25.60
2019-05-01T20:45:04.487Z,25.15
2019-05-01T20:47:34.805Z,25.40
2019-05-01T20:49:59.007Z,26.48
2019-05-01T20:52:27.564Z,25.75
2019-05-01T20:54:56.230Z,26.10
2019-05-01T20:57:26.449Z,26.43
2019-05-01T20:59:55.014Z,25.95
2019-05-01T21:02:23.592Z,25.08
2019-05-01T21:05:12.046Z,24.80
2019-05-01T21:07:52.118Z,25.60
2019-05-01T21:10:25.031Z,25.77
2019-05-01T21:12:50.600Z,26.87
2019-05-01T21:15:19.981Z,25.27
2019-05-01T21:17:52.071Z,25.27
2019-05-01T21:20:20.649Z,26.87
2019-05-01T21:22:49.232Z,27.03
2019-05-01T21:25:17.817Z,26.20
2019-05-01T21:27:48.015Z,26.17
2019-05-01T21:30:16.680Z,26.25
2019-05-01T21:32:45.349Z,24.72
2019-05-01T21:35:13.931Z,25.82
2019-05-01T21:37:42.611Z,25.50
2019-05-01T21:40:12.881Z,25.48
2019-05-01T21:42:42.884Z,24.30
2019-05-01T21:45:12.706Z,23.95
2019-05-01T21:47:42.676Z,23.62
2019-05-01T21:50:13.301Z,24.40
2019-05-01T21:52:43.763Z,22.93
2019-05-01T21:55:12.549Z,24.27
2019-05-01T21:57:41.188Z,23.45
2019-05-01T22:00:11.229Z,22.98
2019-05-01T22:02:41.622Z,23.73
2019-05-01T22:05:10.366Z,22.05
2019-05-01T22:07:39.031Z,24.35
2019-05-01T22:10:08.283Z,23.30
2019-05-01T22:12:36.897Z,22.37
2019-05-01T22:15:11.091Z,23.18
2019-05-01T22:17:43.811Z,22.63
2019-05-01T22:20:14.423Z,22.93
2019-05-01T22:22:45.907Z,22.75
2019-05-01T22:25:16.468Z,22.82
2019-05-01T22:27:46.664Z,23.27
2019-05-01T22:30:36.285Z,22.40
2019-05-01T22:33:05.073Z,22.32
2019-05-01T22:35:35.334Z,22.67
2019-05-01T22:38:05.843Z,22.77
2019-05-01T22:40:35.980Z,21.52
2019-05-01T22:43:04.805Z,22.05
2019-05-01T22:45:33.400Z,21.57
2019-05-01T22:48:01.970Z,22.03
2019-05-01T22:50:30.599Z,22.82
2019-05-01T22:52:59.203Z,22.58
2019-05-01T22:55:27.800Z,22.85
2019-05-01T22:57:56.431Z,22.90
2019-05-01T23:00:41.071Z,22.62
2019-05-01T23:03:11.926Z,22.13
2019-05-01T23:05:40.509Z,23.52
2019-05-01T23:08:09.134Z,22.82
2019-05-01T23:10:41.856Z,22.45
2019-05-01T23:13:08.198Z,23.50
2019-05-01T23:15:36.884Z,22.75
2019-05-01T23:18:05.589Z,23.77
2019-05-01T23:20:34.766Z,23.32
2019-05-01T23:23:04.466Z,23.80
2019-05-01T23:25:36.677Z,24.32
2019-05-01T23:28:04.202Z,23.73
2019-05-01T23:30:33.801Z,24.67
2019-05-01T23:33:02.287Z,23.87
2019-05-01T23:35:30.858Z,23.45
2019-05-01T23:37:59.704Z,23.90
2019-05-01T23:40:28.393Z,23.95
2019-05-01T23:42:56.875Z,23.98
2019-05-01T23:45:25.468Z,23.60
2019-05-01T23:47:54.148Z,23.07
2019-05-01T23:50:22.752Z,23.57
2019-05-01T23:52:51.266Z,23.10
2019-05-01T23:55:19.834Z,23.35
2019-05-01T23:57:48.396Z,23.47
